Time;durP1;ratioP1;P1;durP2;ratioP2;P2;SDS_P1;SDS_P2;PMS_P1;PMS_P2;Temp;Humidity;BMP_temperature;BMP_pressure;BME280_temperature;BME280_humidity;BME280_pressure;Samples;Min_cycle;Max_cycle;Signal;HPM_P1;HPM_P2
2022/03/14 00:00:45;;;;;;;8.50;7.80;;;;;;;4.07;43.91;100670.19;5014512;28;20259;-76
2022/03/14 00:03:12;;;;;;;8.70;7.80;;;;;;;4.13;44.42;100714.19;5014140;28;20698;-76
2022/03/14 00:05:39;;;;;;;8.63;7.93;;;;;;;4.25;45.88;100702.28;5014056;28;20260;-77
2022/03/14 00:08:06;;;;;;;9.13;8.33;;;;;;;4.24;47.41;100660.06;5013995;28;20226;-77
2022/03/14 00:10:34;;;;;;;8.33;7.63;;;;;;;4.21;48.13;100641.06;5008352;28;20215;-76
2022/03/14 00:13:04;;;;;;;9.63;7.53;;;;;;;4.22;47.80;100622.13;5005970;28;20305;-76
2022/03/14 00:15:32;;;;;;;9.20;8.30;;;;;;;4.26;47.46;100613.56;5013488;28;20213;-78
2022/03/14 00:18:01;;;;;;;10.27;9.13;;;;;;;4.27;47.54;100612.72;5013987;28;20246;-77
2022/03/14 00:20:27;;;;;;;8.67;7.87;;;;;;;4.26;47.50;100609.28;5013751;28;20300;-78
2022/03/14 00:22:54;;;;;;;9.13;8.23;;;;;;;4.24;48.57;100603.22;5013680;28;20601;-77
2022/03/14 00:25:21;;;;;;;13.57;8.53;;;;;;;4.25;47.85;100592.03;5014091;28;20217;-78
2022/03/14 00:27:47;;;;;;;10.23;9.37;;;;;;;4.21;48.59;100597.16;5013783;28;20212;-77
2022/03/14 00:30:14;;;;;;;10.00;9.13;;;;;;;4.05;47.10;100638.31;5014037;28;20210;-76
2022/03/14 00:32:41;;;;;;;9.70;8.80;;;;;;;4.07;47.30;100646.97;5013782;28;20214;-78
2022/03/14 00:35:10;;;;;;;9.57;8.67;;;;;;;4.14;48.10;100646.19;5013801;28;20200;-77
2022/03/14 00:37:37;;;;;;;9.50;8.70;;;;;;;4.21;47.83;100638.50;5013757;28;20265;-77
2022/03/14 00:40:07;;;;;;;9.30;8.50;;;;;;;4.21;47.99;100625.56;5009679;28;20675;-76
2022/03/14 00:42:33;;;;;;;9.97;9.07;;;;;;;4.15;48.14;100634.97;5004306;28;20299;-78
2022/03/14 00:45:00;;;;;;;9.83;8.97;;;;;;;4.07;47.91;100639.22;5013435;28;20266;-78
2022/03/14 00:47:26;;;;;;;10.50;9.60;;;;;;;4.04;48.83;100621.06;5013567;28;20671;-77
2022/03/14 00:49:53;;;;;;;12.77;9.70;;;;;;;4.02;49.07;100603.84;5013615;28;20317;-76
2022/03/14 00:52:21;;;;;;;10.33;9.33;;;;;;;3.93;50.44;100579.66;5013599;28;20209;-79
2022/03/14 00:54:48;;;;;;;11.00;10.10;;;;;;;3.79;50.87;100550.25;5013433;28;20204;-78
2022/03/14 00:57:15;;;;;;;10.20;9.20;;;;;;;3.71;49.53;100547.59;5013668;28;20208;-77
2022/03/14 00:59:41;;;;;;;10.33;9.43;;;;;;;3.57;50.54;100550.00;5013465;28;20229;-78
2022/03/14 01:02:09;;;;;;;9.87;9.07;;;;;;;3.52;51.35;100532.75;5013284;28;20607;-78
2022/03/14 01:04:36;;;;;;;10.73;9.80;;;;;;;3.39;50.87;100511.09;5012530;28;20210;-78
2022/03/14 01:07:03;;;;;;;10.23;9.33;;;;;;;3.42;51.58;100515.44;5013395;28;20211;-76
2022/03/14 01:09:30;;;;;;;10.87;9.87;;;;;;;3.38;51.45;100501.63;5013376;28;20240;-78
2022/03/14 01:11:57;;;;;;;10.23;9.37;;;;;;;3.37;50.94;100502.50;5001984;28;20235;-78
2022/03/14 01:14:25;;;;;;;11.03;10.07;;;;;;;3.37;51.18;100505.06;5010221;28;20607;-78
2022/03/14 01:16:51;;;;;;;10.67;9.57;;;;;;;3.31;51.59;100498.13;5013496;28;20219;-77
2022/03/14 01:19:19;;;;;;;9.50;8.70;;;;;;;3.34;50.99;100498.13;5012960;28;20242;-78
2022/03/14 01:21:46;;;;;;;11.47;10.33;;;;;;;3.26;52.19;100498.91;5013430;28;20237;-77
2022/03/14 01:24:12;;;;;;;10.67;9.77;;;;;;;3.16;52.88;100490.19;5012768;28;20298;-79
2022/03/14 01:26:40;;;;;;;9.70;8.77;;;;;;;3.16;52.45;100474.72;5013191;28;20212;-77
2022/03/14 01:29:07;;;;;;;10.10;9.10;;;;;;;3.07;53.21;100457.44;5013126;28;20721;-78
2022/03/14 01:31:34;;;;;;;9.83;9.03;;;;;;;3.02;54.37;100445.31;5012863;28;20208;-78
2022/03/14 01:34:00;;;;;;;10.70;9.80;;;;;;;2.95;53.80;100432.38;5013146;28;20263;-76
2022/03/14 01:36:27;;;;;;;11.30;9.50;;;;;;;3.00;53.15;100432.41;5013173;28;20212;-77
2022/03/14 01:38:53;;;;;;;10.00;9.10;;;;;;;2.98;54.02;100431.53;5012964;28;20230;-79
2022/03/14 01:41:22;;;;;;;10.30;9.40;;;;;;;2.93;55.17;100409.97;5006895;28;20247;-77
2022/03/14 01:43:50;;;;;;;9.77;8.77;;;;;;;2.87;53.86;100408.19;5005235;28;20245;-76
2022/03/14 01:46:18;;;;;;;9.70;8.70;;;;;;;2.82;53.51;100420.16;5012851;28;20626;-79
2022/03/14 01:48:44;;;;;;;9.93;9.03;;;;;;;2.89;53.03;100432.25;5012677;28;20779;-78
2022/03/14 01:51:11;;;;;;;9.03;8.23;;;;;;;2.92;53.84;100442.63;5013265;28;20203;-78
2022/03/14 01:53:38;;;;;;;10.47;8.70;;;;;;;3.03;53.12;100452.19;5012887;28;20207;-77
2022/03/14 01:56:06;;;;;;;8.77;7.97;;;;;;;3.03;52.96;100477.97;5012607;28;20692;-79
2022/03/14 01:58:32;;;;;;;9.40;8.60;;;;;;;3.03;53.18;100483.13;5012486;28;20230;-78
2022/03/14 02:01:00;;;;;;;9.17;8.33;;;;;;;2.96;51.88;100487.38;5013094;28;20212;-75
2022/03/14 02:03:26;;;;;;;11.00;8.87;;;;;;;2.95;52.95;100485.63;5016470;28;20222;-77
2022/03/14 02:05:53;;;;;;;10.07;8.90;;;;;;;3.03;52.54;100477.97;5015791;28;20259;-78
2022/03/14 02:08:19;;;;;;;10.43;9.53;;;;;;;3.01;53.10;100472.81;5015916;28;20273;-77
2022/03/14 02:10:46;;;;;;;9.67;8.73;;;;;;;2.98;53.46;100471.06;5010214;28;20205;-77
2022/03/14 02:13:12;;;;;;;10.20;9.30;;;;;;;3.01;53.08;100461.63;5008007;28;20653;-77
2022/03/14 02:15:39;;;;;;;11.67;9.67;;;;;;;3.02;53.51;100465.97;5015892;28;20262;-76
2022/03/14 02:18:07;;;;;;;9.33;8.33;;;;;;;3.00;54.05;100465.06;5016348;28;20282;-76
2022/03/14 02:20:35;;;;;;;10.03;9.13;;;;;;;2.99;52.63;100471.91;5016301;28;20298;-79
2022/03/14 02:23:02;;;;;;;9.00;8.20;;;;;;;2.89;51.93;100503.59;5016694;28;20207;-77
2022/03/14 02:25:28;;;;;;;9.73;8.87;;;;;;;2.90;52.26;100508.78;5015645;28;20564;-76
2022/03/14 02:27:55;;;;;;;8.70;8.00;;;;;;;2.85;51.02;100533.59;5015490;28;20594;-76
2022/03/14 02:30:23;;;;;;;9.37;8.57;;;;;;;2.93;50.81;100556.94;5015971;28;20625;-79
2022/03/14 02:32:50;;;;;;;9.87;8.87;;;;;;;3.06;50.66;100573.44;5016586;28;20208;-78
2022/03/14 02:35:17;;;;;;;10.73;9.63;;;;;;;3.10;51.07;100588.97;5015869;28;20265;-77
2022/03/14 02:37:45;;;;;;;9.40;8.60;;;;;;;3.16;50.21;100598.50;5015872;28;20626;-78
2022/03/14 02:40:12;;;;;;;8.63;7.80;;;;;;;3.22;50.88;100616.66;5011322;28;20719;-78
2022/03/14 02:42:39;;;;;;;9.77;8.80;;;;;;;3.22;50.83;100605.47;5007621;28;20203;-78
2022/03/14 02:45:09;;;;;;;9.60;8.63;;;;;;;3.25;51.57;100603.81;5015337;28;20207;-77
2022/03/14 02:47:35;;;;;;;8.77;8.07;;;;;;;3.32;50.34;100609.91;5015944;28;20206;-78
2022/03/14 02:50:01;;;;;;;9.80;8.90;;;;;;;3.30;52.07;100596.97;5016219;28;20204;-78
2022/03/14 02:52:28;;;;;;;9.43;8.57;;;;;;;3.32;51.42;100581.53;5015876;28;20208;-78
2022/03/14 02:54:56;;;;;;;8.27;7.60;;;;;;;3.32;51.61;100597.88;5015659;28;20208;-77
2022/03/14 02:57:22;;;;;;;8.93;8.13;;;;;;;3.32;51.68;100602.16;5016054;28;20207;-78
2022/03/14 02:59:49;;;;;;;9.10;8.33;;;;;;;3.35;52.26;100603.09;5015957;28;20235;-78
2022/03/14 03:02:18;;;;;;;9.37;8.50;;;;;;;3.40;51.74;100595.38;5016018;28;20219;-77
2022/03/14 03:04:44;;;;;;;12.13;9.23;;;;;;;3.42;51.35;100600.56;5016369;28;20228;-78
2022/03/14 03:07:11;;;;;;;8.67;7.87;;;;;;;3.36;51.25;100624.56;5015908;28;20217;-78
2022/03/14 03:09:37;;;;;;;8.80;8.00;;;;;;;3.38;50.38;100646.09;5015284;28;20274;-77
2022/03/14 03:12:11;;;;;;;11.77;9.10;;;;;;;3.43;49.51;100687.44;5004352;28;20208;-77
2022/03/14 03:14:37;;;;;;;9.70;8.80;;;;;;;3.46;49.39;100688.34;5014006;28;20227;-78
2022/03/14 03:17:05;;;;;;;10.00;9.03;;;;;;;3.50;48.97;100694.44;5016053;28;20221;-79
2022/03/14 03:19:31;;;;;;;9.90;9.00;;;;;;;3.52;49.43;100698.75;5016043;28;20233;-79
2022/03/14 03:21:58;;;;;;;8.90;8.10;;;;;;;3.48;49.94;100690.97;5015952;28;20265;-78
2022/03/14 03:24:24;;;;;;;8.33;7.63;;;;;;;3.48;50.40;100698.72;5015687;28;20214;-78
2022/03/14 03:26:51;;;;;;;9.30;8.47;;;;;;;3.48;50.99;100678.94;5015883;28;20277;-78
2022/03/14 03:29:18;;;;;;;9.53;8.70;;;;;;;3.48;50.64;100670.31;5015386;28;20226;-78
2022/03/14 03:31:45;;;;;;;10.47;8.83;;;;;;;3.48;50.20;100657.41;5015797;28;20208;-76
2022/03/14 03:34:11;;;;;;;9.47;8.57;;;;;;;3.48;50.14;100684.09;5015373;28;20210;-78
2022/03/14 03:36:38;;;;;;;8.83;8.07;;;;;;;3.47;49.96;100697.84;5015322;28;20619;-78
2022/03/14 03:39:04;;;;;;;9.13;7.87;;;;;;;3.46;50.82;100688.34;5015271;28;20323;-77
2022/03/14 03:41:31;;;;;;;9.50;8.70;;;;;;;3.44;50.88;100682.31;5007475;28;20611;-77
2022/03/14 03:43:58;;;;;;;8.73;8.03;;;;;;;3.41;51.30;100668.50;5009605;28;20245;-78
2022/03/14 03:46:26;;;;;;;9.83;8.87;;;;;;;3.45;50.57;100670.28;5015516;28;20223;-78
2022/03/14 03:48:52;;;;;;;8.93;8.17;;;;;;;3.41;50.81;100658.16;5015530;28;20288;-77
2022/03/14 03:51:19;;;;;;;9.60;8.80;;;;;;;3.40;50.86;100657.31;5015279;28;20747;-78
2022/03/14 03:53:46;;;;;;;10.27;8.40;;;;;;;3.40;50.39;100669.34;5015035;28;20243;-78
2022/03/14 03:56:12;;;;;;;9.10;8.20;;;;;;;3.34;51.09;100667.56;5015438;28;20707;-78
2022/03/14 03:58:39;;;;;;;10.23;8.10;;;;;;;3.33;51.09;100666.69;5015347;28;20231;-78
2022/03/14 04:01:06;;;;;;;9.20;8.37;;;;;;;3.29;52.34;100648.53;5015119;28;20645;-78
2022/03/14 04:03:34;;;;;;;8.80;8.10;;;;;;;3.28;51.75;100641.66;5014964;28;20725;-77
2022/03/14 04:06:01;;;;;;;8.73;7.93;;;;;;;3.31;51.38;100646.84;5015436;28;20209;-78
2022/03/14 04:08:30;;;;;;;11.17;7.73;;;;;;;3.30;51.80;100664.06;5015061;28;20232;-78
2022/03/14 04:10:58;;;;;;;8.67;7.97;;;;;;;3.23;52.25;100651.03;5010073;28;20289;-78
2022/03/14 04:13:28;;;;;;;9.00;8.10;;;;;;;3.28;51.55;100662.31;5007299;28;20230;-77
2022/03/14 04:15:57;;;;;;;8.77;7.90;;;;;;;3.29;51.33;100666.59;5015925;28;20416;-79
2022/03/14 04:18:25;;;;;;;9.27;8.50;;;;;;;3.25;49.58;100714.72;5014314;28;20227;-77
2022/03/14 04:20:54;;;;;;;8.13;7.43;;;;;;;3.21;47.14;100769.72;5014612;28;20231;-77
2022/03/14 04:23:21;;;;;;;8.97;8.10;;;;;;;3.16;47.21;100789.38;5014628;28;20234;-77
2022/03/14 04:25:48;;;;;;;9.00;8.20;;;;;;;3.17;48.48;100781.69;5014101;28;20666;-77
2022/03/14 04:28:15;;;;;;;8.60;7.80;;;;;;;3.14;47.38;100809.13;5014022;28;20714;-76
2022/03/14 04:30:42;;;;;;;9.20;8.33;;;;;;;3.06;46.74;100826.19;5013869;28;20215;-76
2022/03/14 04:33:09;;;;;;;9.87;8.93;;;;;;;2.84;46.33;100861.88;5014379;28;20231;-77
2022/03/14 04:35:36;;;;;;;10.10;9.20;;;;;;;2.76;46.62;100877.19;5013495;28;20207;-78
2022/03/14 04:38:06;;;;;;;9.73;8.73;;;;;;;2.73;47.51;100871.09;5013778;28;20227;-77
2022/03/14 04:40:33;;;;;;;9.60;8.80;;;;;;;2.67;47.01;100869.25;5008084;28;20246;-77
2022/03/14 04:43:04;;;;;;;9.80;8.80;;;;;;;2.68;46.42;100873.59;5005423;28;20207;-79
2022/03/14 04:45:30;;;;;;;10.17;9.27;;;;;;;2.68;47.14;100885.63;5013566;28;20192;-78
2022/03/14 04:47:57;;;;;;;8.93;8.13;;;;;;;2.66;47.31;100861.53;5013537;28;20235;-78
2022/03/14 04:50:23;;;;;;;11.03;9.17;;;;;;;2.76;47.64;100864.28;5013697;28;20202;-77
2022/03/14 04:52:50;;;;;;;9.50;8.60;;;;;;;2.92;47.53;100850.00;5013525;28;20293;-77
2022/03/14 04:55:17;;;;;;;9.70;8.83;;;;;;;3.04;48.61;100828.72;5013442;28;20263;-78
2022/03/14 04:57:44;;;;;;;9.63;8.73;;;;;;;3.11;50.45;100784.16;5013558;28;20295;-77
2022/03/14 05:00:11;;;;;;;9.37;8.57;;;;;;;3.21;50.85;100756.81;5013873;28;20311;-78
2022/03/14 05:02:37;;;;;;;9.97;8.97;;;;;;;3.22;49.76;100760.25;5013256;28;20268;-79
2022/03/14 05:05:04;;;;;;;10.37;9.37;;;;;;;3.26;50.43;100765.47;5013451;28;20216;-78
2022/03/14 05:07:31;;;;;;;10.50;9.40;;;;;;;3.33;50.63;100761.25;5013570;28;20753;-77
2022/03/14 05:09:58;;;;;;;9.67;8.83;;;;;;;3.37;50.92;100745.00;5010567;28;20700;-78
2022/03/14 05:12:26;;;;;;;10.37;9.47;;;;;;;3.36;50.88;100743.25;5002943;28;20230;-77
2022/03/14 05:14:53;;;;;;;10.07;9.23;;;;;;;3.24;48.96;100759.41;5013545;28;20283;-76
2022/03/14 05:17:20;;;;;;;10.20;9.27;;;;;;;3.33;50.27;100753.53;5013701;28;20241;-77
2022/03/14 05:19:46;;;;;;;10.00;9.10;;;;;;;3.35;50.07;100752.72;5013885;28;20239;-77
2022/03/14 05:22:13;;;;;;;9.83;8.93;;;;;;;3.43;51.37;100750.25;5014898;28;20239;-77
2022/03/14 05:24:39;;;;;;;9.77;8.90;;;;;;;3.47;52.48;100725.34;5015817;28;20205;-77
2022/03/14 05:27:06;;;;;;;9.97;9.07;;;;;;;3.49;53.11;100698.75;5016829;28;20263;-78
2022/03/14 05:29:34;;;;;;;9.33;8.37;;;;;;;3.52;53.14;100678.13;5012903;28;20638;-76
2022/03/14 05:32:01;;;;;;;9.90;9.00;;;;;;;3.55;51.14;100719.47;5012626;28;20559;-77
2022/03/14 05:34:27;;;;;;;10.03;9.17;;;;;;;3.58;51.77;100736.69;5013005;28;20441;-79
2022/03/14 05:36:54;;;;;;;9.53;8.57;;;;;;;3.60;52.14;100711.78;5014805;28;20214;-79
2022/03/14 05:39:20;;;;;;;10.60;9.67;;;;;;;3.55;51.13;100723.78;5017080;28;20279;-75
2022/03/14 05:41:47;;;;;;;9.57;8.77;;;;;;;3.57;50.78;100746.16;5007013;28;20207;-78
2022/03/14 05:44:13;;;;;;;9.47;8.57;;;;;;;3.58;49.08;100798.66;5013436;28;20552;-78
2022/03/14 05:46:41;;;;;;;10.13;9.20;;;;;;;3.63;47.42;100829.69;5017360;28;20613;-78
2022/03/14 05:49:08;;;;;;;9.20;8.40;;;;;;;3.76;48.23;100855.72;5017849;28;20283;-79
2022/03/14 05:51:36;;;;;;;9.60;8.80;;;;;;;3.86;49.51;100837.78;5019634;28;20233;-79
2022/03/14 05:54:03;;;;;;;9.40;8.60;;;;;;;3.93;50.37;100814.66;5019955;28;20209;-78
2022/03/14 05:56:30;;;;;;;10.00;9.03;;;;;;;3.99;50.09;100806.13;5020332;28;20207;-77
2022/03/14 05:58:56;;;;;;;9.50;8.70;;;;;;;3.98;48.48;100815.63;5017701;28;20246;-77
2022/03/14 06:01:23;;;;;;;10.27;9.27;;;;;;;4.00;49.09;100836.28;5017083;28;20240;-78
2022/03/14 06:03:51;;;;;;;9.80;8.83;;;;;;;4.05;48.23;100857.88;5016860;28;20197;-77
2022/03/14 06:06:17;;;;;;;10.23;9.23;;;;;;;4.06;48.30;100884.56;5017089;28;20237;-77
2022/03/14 06:08:44;;;;;;;11.37;10.23;;;;;;;4.09;48.95;100864.81;5017023;28;20227;-78
2022/03/14 06:11:10;;;;;;;13.77;10.43;;;;;;;4.13;48.05;100868.31;5011170;28;20724;-78
2022/03/14 06:13:36;;;;;;;10.60;9.60;;;;;;;4.16;49.22;100870.94;4991411;28;20218;-78
2022/03/14 06:16:03;;;;;;;10.97;9.87;;;;;;;4.16;48.24;100887.34;4984471;28;20676;-78
2022/03/14 06:18:30;;;;;;;10.37;9.53;;;;;;;4.15;48.56;100889.88;4982379;28;20280;-78
2022/03/14 06:20:58;;;;;;;10.93;9.83;;;;;;;4.17;49.12;100886.47;4984322;28;20311;-77
2022/03/14 06:23:24;;;;;;;10.50;9.53;;;;;;;4.16;49.66;100868.34;4985036;28;20257;-77
2022/03/14 06:25:52;;;;;;;10.37;9.37;;;;;;;4.17;49.95;100868.38;4984404;28;20254;-78
2022/03/14 06:28:18;;;;;;;10.97;9.97;;;;;;;4.15;47.73;100902.81;4987814;28;20230;-78
2022/03/14 06:30:45;;;;;;;10.53;9.53;;;;;;;4.17;47.32;100935.56;4984509;28;20199;-77
2022/03/14 06:33:11;;;;;;;9.67;8.77;;;;;;;4.22;47.85;100937.34;4985796;28;20211;-77
2022/03/14 06:35:40;;;;;;;10.17;9.20;;;;;;;4.31;48.67;100928.00;4982476;28;20621;-78
2022/03/14 06:38:08;;;;;;;10.10;9.20;;;;;;;4.40;48.68;100932.47;4983822;28;20218;-78
2022/03/14 06:40:34;;;;;;;12.10;11.03;;;;;;;4.53;49.13;100924.00;4988005;28;20234;-78
2022/03/14 06:43:00;;;;;;;19.83;17.57;;;;;;;4.72;47.40;100958.75;4996909;28;20280;-81
2022/03/14 06:45:27;;;;;;;15.10;13.60;;;;;;;4.82;47.26;100956.28;4985126;28;20715;-82
2022/03/14 06:47:54;;;;;;;13.83;12.63;;;;;;;4.90;49.02;100936.56;4988667;28;20738;-77
2022/03/14 06:50:23;;;;;;;11.83;10.83;;;;;;;5.06;47.34;100966.06;4996241;28;20208;-78
2022/03/14 06:52:49;;;;;;;10.57;9.57;;;;;;;5.15;48.27;100941.19;4997302;28;20203;-78
2022/03/14 06:55:18;;;;;;;9.73;8.93;;;;;;;5.29;46.43;100982.75;4998506;28;20211;-81
2022/03/14 06:57:44;;;;;;;9.80;8.77;;;;;;;5.37;48.42;100975.94;4998159;28;20243;-79
2022/03/14 07:00:12;;;;;;;9.37;8.57;;;;;;;5.54;46.06;101014.06;5000546;28;20225;-79
2022/03/14 07:02:39;;;;;;;10.33;9.37;;;;;;;5.66;46.33;101021.97;5000629;28;20214;-79
2022/03/14 07:05:09;;;;;;;10.40;9.40;;;;;;;5.82;45.14;101048.03;4999343;28;20239;-80
2022/03/14 07:07:35;;;;;;;9.73;8.93;;;;;;;5.86;48.68;101021.31;4999695;28;20215;-79
2022/03/14 07:10:02;;;;;;;10.50;9.60;;;;;;;5.89;49.63;100954.84;5000168;28;20612;-79
2022/03/14 07:12:30;;;;;;;9.90;9.03;;;;;;;6.05;46.05;101028.44;5009897;28;20206;-79
2022/03/14 07:14:56;;;;;;;11.27;10.10;;;;;;;6.10;47.10;101031.91;5019243;28;20218;-79
2022/03/14 07:17:22;;;;;;;10.27;9.27;;;;;;;6.14;47.63;101033.72;5019895;28;20241;-79
2022/03/14 07:19:49;;;;;;;10.80;9.70;;;;;;;6.22;46.88;101048.44;5019664;28;20238;-79
2022/03/14 07:22:19;;;;;;;10.40;9.50;;;;;;;6.30;47.29;101046.78;5019911;28;20206;-80
2022/03/14 07:24:46;;;;;;;11.23;10.10;;;;;;;6.37;48.48;101033.03;5019527;28;20210;-80
2022/03/14 07:27:12;;;;;;;11.50;9.73;;;;;;;6.41;49.58;101014.03;5019459;28;20207;-80
2022/03/14 07:29:40;;;;;;;10.70;9.77;;;;;;;6.48;49.02;100992.50;5021814;28;20313;-78
2022/03/14 07:32:07;;;;;;;10.40;9.50;;;;;;;6.55;49.28;100980.41;5023895;28;20210;-79
2022/03/14 07:34:34;;;;;;;11.27;10.27;;;;;;;6.64;49.80;100971.81;5019299;28;20455;-78
2022/03/14 07:37:00;;;;;;;10.80;9.70;;;;;;;6.71;49.79;100958.03;5014913;28;20741;-79
2022/03/14 07:39:27;;;;;;;11.37;10.43;;;;;;;6.81;49.43;100971.91;5016193;28;20227;-79
2022/03/14 07:41:53;;;;;;;12.65;11.65;;;;;;;6.95;49.09;100975.44;5007543;28;20452;-78
2022/03/14 07:44:20;;;;;;;12.27;11.27;;;;;;;7.09;50.18;100965.97;5011953;28;20209;-77
2022/03/14 07:46:48;;;;;;;11.10;10.20;;;;;;;7.16;50.04;100957.34;5014198;28;20216;-77
2022/03/14 07:49:14;;;;;;;11.27;10.27;;;;;;;7.26;49.22;100975.56;5021487;28;20597;-80
2022/03/14 07:51:41;;;;;;;11.40;10.53;;;;;;;7.35;49.80;100975.59;5027744;28;20238;-79
2022/03/14 07:54:07;;;;;;;11.07;10.13;;;;;;;7.43;49.57;100979.06;5025898;28;20326;-79
2022/03/14 07:56:34;;;;;;;12.10;11.00;;;;;;;7.47;50.12;100967.84;5021995;28;20207;-79
2022/03/14 07:59:00;;;;;;;11.53;10.53;;;;;;;7.48;50.35;100956.56;5016435;28;20238;-80
2022/03/14 08:01:26;;;;;;;12.03;10.93;;;;;;;7.50;50.66;100938.41;5021985;28;20793;-79
2022/03/14 08:03:54;;;;;;;12.67;11.33;;;;;;;7.58;51.61;100926.28;5019680;28;20218;-80
2022/03/14 08:06:23;;;;;;;12.10;11.10;;;;;;;7.67;51.96;100889.03;5018694;28;20207;-78
2022/03/14 08:08:50;;;;;;;12.80;11.70;;;;;;;7.71;51.92;100873.47;5023193;28;20786;-79
2022/03/14 08:11:17;;;;;;;12.03;10.50;;;;;;;7.83;52.21;100874.31;5013420;28;20280;-80
2022/03/14 08:13:44;;;;;;;12.10;10.90;;;;;;;7.88;53.20;100855.25;5010750;28;20683;-80
2022/03/14 08:16:10;;;;;;;13.07;11.67;;;;;;;7.94;54.00;100836.19;5018052;28;20210;-79
2022/03/14 08:18:38;;;;;;;13.37;12.20;;;;;;;8.00;53.96;100819.72;5019008;28;20231;-79
2022/03/14 08:21:06;;;;;;;12.63;11.43;;;;;;;8.05;54.21;100805.84;5018425;28;20234;-80
2022/03/14 08:23:35;;;;;;;12.60;11.50;;;;;;;8.08;54.41;100811.03;5017961;28;20206;-80
2022/03/14 08:26:01;;;;;;;12.70;11.40;;;;;;;8.11;53.33;100815.38;5018056;28;20211;-79
2022/03/14 08:28:27;;;;;;;12.40;11.30;;;;;;;8.07;55.42;100816.25;5017286;28;20238;-78
2022/03/14 08:30:54;;;;;;;13.80;12.60;;;;;;;8.08;55.46;100797.16;5017738;28;20215;-79
2022/03/14 08:33:22;;;;;;;12.80;11.00;;;;;;;8.16;54.53;100795.41;5017592;28;20236;-81
2022/03/14 08:35:49;;;;;;;12.20;11.00;;;;;;;8.08;56.09;100781.56;4995394;28;20196;-79
2022/03/14 08:38:16;;;;;;;12.40;11.30;;;;;;;8.20;54.90;100781.53;4988350;28;20724;-79
2022/03/14 08:40:43;;;;;;;12.07;10.87;;;;;;;8.28;56.52;100771.09;4993757;28;20278;-80
2022/03/14 08:43:10;;;;;;;12.23;11.13;;;;;;;8.22;57.39;100745.13;5001809;28;20212;-79
2022/03/14 08:45:37;;;;;;;12.83;11.63;;;;;;;8.22;57.18;100719.97;4998605;28;20305;-79
2022/03/14 08:48:05;;;;;;;11.93;10.93;;;;;;;8.24;58.34;100704.38;4998270;28;20223;-81
2022/03/14 08:50:33;;;;;;;11.37;10.37;;;;;;;8.20;59.46;100679.25;4998795;28;20294;-80
2022/03/14 08:52:59;;;;;;;12.17;11.13;;;;;;;8.24;59.12;100657.56;4998121;28;20207;-80
2022/03/14 08:55:27;;;;;;;11.57;10.57;;;;;;;8.22;61.56;100622.91;4997472;28;20207;-80
2022/03/14 08:57:54;;;;;;;13.67;10.87;;;;;;;8.38;61.13;100606.31;5002131;28;20242;-81
2022/03/14 09:00:21;;;;;;;12.77;11.57;;;;;;;8.43;62.94;100582.91;5004480;28;20210;-81
2022/03/14 09:02:47;;;;;;;12.53;11.47;;;;;;;8.52;63.65;100542.09;5001740;28;20404;-79
2022/03/14 09:05:14;;;;;;;11.50;10.50;;;;;;;8.62;63.80;100523.75;4998548;28;20210;-77
2022/03/14 09:07:40;;;;;;;11.47;10.47;;;;;;;8.71;64.58;100523.69;4993986;28;20230;-79
2022/03/14 09:10:09;;;;;;;11.57;10.67;;;;;;;8.81;63.67;100542.66;4996034;28;20684;-80
2022/03/14 09:12:37;;;;;;;11.70;10.70;;;;;;;8.79;64.86;100534.03;4992348;28;20232;-79
2022/03/14 09:15:05;;;;;;;11.23;10.13;;;;;;;8.87;64.74;100540.00;4994476;28;20672;-79
2022/03/14 09:17:32;;;;;;;11.13;10.23;;;;;;;8.88;65.41;100528.69;4996237;28;20210;-80
2022/03/14 09:20:00;;;;;;;10.30;9.50;;;;;;;8.93;66.15;100529.53;4992295;28;20286;-80
2022/03/14 09:22:27;;;;;;;11.27;10.37;;;;;;;8.88;67.50;100515.69;4984659;28;20227;-79
2022/03/14 09:24:55;;;;;;;11.17;10.27;;;;;;;8.83;67.91;100497.53;4982349;28;20611;-80
2022/03/14 09:27:23;;;;;;;11.57;10.20;;;;;;;8.94;66.93;100526.91;4988834;28;20571;-78
2022/03/14 09:29:52;;;;;;;10.83;9.93;;;;;;;8.97;66.63;100531.22;4986331;28;20229;-78
2022/03/14 09:32:18;;;;;;;12.27;11.17;;;;;;;8.91;67.18;100565.13;4986542;28;20206;-78
2022/03/14 09:34:45;;;;;;;11.17;10.27;;;;;;;8.99;67.05;100552.88;4986020;28;20237;-78
2022/03/14 09:37:11;;;;;;;11.47;10.37;;;;;;;8.90;68.17;100547.75;4986698;28;20254;-78
2022/03/14 09:39:37;;;;;;;10.30;9.40;;;;;;;8.84;67.77;100542.63;4985189;28;20228;-78
2022/03/14 09:42:07;;;;;;;11.17;10.17;;;;;;;8.92;67.92;100559.06;5002080;28;20223;-78
2022/03/14 09:44:34;;;;;;;10.47;9.67;;;;;;;8.92;69.20;100551.25;5014195;28;20231;-77
2022/03/14 09:47:03;;;;;;;11.23;10.23;;;;;;;8.78;69.81;100540.97;5016014;28;20265;-78
2022/03/14 09:49:31;;;;;;;11.03;10.03;;;;;;;8.91;68.53;100555.56;5018756;28;20229;-78
2022/03/14 09:51:59;;;;;;;9.37;8.57;;;;;;;8.87;70.16;100572.09;5016566;28;20205;-79
2022/03/14 09:54:26;;;;;;;11.03;8.90;;;;;;;8.89;69.22;100562.53;5015808;28;20626;-78
2022/03/14 09:56:56;;;;;;;9.60;8.77;;;;;;;8.80;70.72;100572.16;5016062;28;20703;-77
2022/03/14 09:59:22;;;;;;;9.20;8.33;;;;;;;8.89;70.26;100570.34;5016497;28;20231;-78
2022/03/14 10:01:51;;;;;;;9.10;8.37;;;;;;;8.88;70.95;100565.13;5016428;28;20258;-78
2022/03/14 10:04:18;;;;;;;8.93;8.23;;;;;;;8.71;72.49;100544.50;5015357;28;20249;-78
2022/03/14 10:06:45;;;;;;;8.97;8.20;;;;;;;8.75;73.09;100535.78;5016799;28;20211;-77
2022/03/14 10:09:11;;;;;;;9.00;8.20;;;;;;;8.68;74.13;100518.50;5016365;28;20227;-78
2022/03/14 10:11:38;;;;;;;8.43;7.83;;;;;;;8.75;73.69;100521.03;5008204;28;20234;-79
2022/03/14 10:14:06;;;;;;;9.67;8.87;;;;;;;8.50;76.39;100506.53;5011080;28;20249;-77
2022/03/14 10:16:33;;;;;;;9.30;8.60;;;;;;;8.61;75.89;100498.63;5015418;28;20246;-77
2022/03/14 10:19:02;;;;;;;10.50;9.60;;;;;;;8.40;78.61;100481.44;5015737;28;20716;-78
2022/03/14 10:21:35;;;;;;;10.73;9.83;;;;;;;8.42;78.83;100461.53;5016294;28;20609;-78
2022/03/14 10:24:04;;;;;;;11.17;10.20;;;;;;;8.62;77.87;100498.63;5021037;28;20210;-78
2022/03/14 10:26:33;;;;;;;10.80;9.97;;;;;;;8.79;77.20;100549.63;5021554;28;20761;-79
2022/03/14 10:29:01;;;;;;;10.43;9.60;;;;;;;8.58;80.19;100535.94;5021593;28;20318;-78
2022/03/14 10:31:29;;;;;;;11.87;10.87;;;;;;;8.57;80.62;100541.19;5022682;28;20202;-78
2022/03/14 10:34:00;;;;;;;12.07;11.07;;;;;;;8.44;82.62;100515.25;5014959;28;20210;-76
2022/03/14 10:36:45;;;;;;;10.07;9.27;;;;;;;8.59;82.22;100526.41;5015289;28;20274;-75
2022/03/14 10:39:19;;;;;;;10.63;9.83;;;;;;;8.55;83.28;100543.78;5014703;28;20226;-76
2022/03/14 10:41:48;;;;;;;10.80;10.00;;;;;;;8.51;84.57;100576.75;5005312;28;20261;-76
2022/03/14 10:44:25;;;;;;;11.00;10.10;;;;;;;8.28;84.30;100583.84;4990151;28;20207;-76
2022/03/14 10:46:52;;;;;;;9.80;9.00;;;;;;;8.39;84.77;100604.59;4980214;28;20204;-76
2022/03/14 10:49:19;;;;;;;10.13;9.20;;;;;;;8.45;82.93;100654.84;4975058;28;20724;-75
2022/03/14 10:51:54;;;;;;;10.33;9.43;;;;;;;8.61;82.71;100694.63;4975767;28;20320;-76
2022/03/14 10:54:20;;;;;;;8.97;8.27;;;;;;;8.55;83.37;100705.09;4975327;28;20293;-74
2022/03/14 10:57:01;;;;;;;8.20;7.60;;;;;;;8.69;82.40;100746.63;4975303;28;20270;-76
2022/03/14 10:59:39;;;;;;;8.43;7.73;;;;;;;8.85;81.52;100783.84;4975495;28;20290;-76
2022/03/14 11:02:07;;;;;;;8.27;7.67;;;;;;;8.99;80.96;100812.41;4975526;28;20232;-77
2022/03/14 11:04:47;;;;;;;6.97;6.47;;;;;;;8.80;83.48;100789.09;4974961;28;20709;-76
2022/03/14 11:07:16;;;;;;;6.13;5.53;;;;;;;8.80;83.31;100786.50;4975653;28;20188;-76
2022/03/14 11:09:45;;;;;;;5.67;5.20;;;;;;;8.92;84.50;100778.59;4976241;28;20228;-76
2022/03/14 11:12:15;;;;;;;4.63;4.33;;;;;;;8.75;84.17;100777.81;5003041;28;20208;-76
2022/03/14 11:14:42;;;;;;;4.60;4.20;;;;;;;8.90;85.55;100776.84;5001851;28;20211;-80
2022/03/14 11:17:17;;;;;;;6.43;5.43;;;;;;;8.79;85.14;100795.16;5005658;28;20285;-83
2022/03/14 11:19:44;;;;;;;4.93;4.53;;;;;;;8.83;84.44;100825.50;5000314;28;20272;-83
2022/03/14 11:22:12;;;;;;;4.40;4.10;;;;;;;8.89;84.61;100838.47;5002438;28;20226;-81
2022/03/14 11:24:43;;;;;;;4.33;3.93;;;;;;;8.97;85.15;100842.78;5007943;28;20213;-84
2022/03/14 11:27:19;;;;;;;4.30;4.00;;;;;;;9.02;84.66;100854.91;4999448;28;20196;-82